createdAt,value
2019-02-11T00:00:13.768Z,169.75
2019-02-11T00:02:42.292Z,116.15
2019-02-11T00:05:10.798Z,167.25
2019-02-11T00:07:39.377Z,124.60
2019-02-11T00:10:07.841Z,190.15
2019-02-11T00:12:36.294Z,194.32
2019-02-11T00:15:05.801Z,195.12
2019-02-11T00:17:34.389Z,159.40
2019-02-11T00:20:02.861Z,175.07
2019-02-11T00:22:31.284Z,160.48
2019-02-11T00:24:59.798Z,191.40
2019-02-11T00:27:28.307Z,170.22
2019-02-11T00:29:56.800Z,164.28
2019-02-11T00:32:25.389Z,153.57
2019-02-11T00:34:53.833Z,169.22
2019-02-11T00:37:22.279Z,182.50
2019-02-11T00:39:50.863Z,154.20
2019-02-11T00:42:19.382Z,186.30
2019-02-11T00:44:47.876Z,155.20
2019-02-11T00:47:16.408Z,183.62
2019-02-11T00:49:44.888Z,178.02
2019-02-11T00:52:13.446Z,194.80
2019-02-11T00:54:41.979Z,176.95
2019-02-11T00:57:10.473Z,195.62
2019-02-11T00:59:38.910Z,181.67
2019-02-11T01:02:07.491Z,179.60
2019-02-11T01:04:35.993Z,190.20
2019-02-11T01:07:04.501Z,195.65
2019-02-11T01:09:33.095Z,154.30
2019-02-11T01:12:01.513Z,161.43
2019-02-11T01:14:30.011Z,156.87
2019-02-11T01:16:58.521Z,122.87
2019-02-11T01:19:27.982Z,181.85
2019-02-11T01:21:56.548Z,151.95
2019-02-11T01:24:25.056Z,173.78
2019-02-11T01:26:53.546Z,163.47
2019-02-11T01:29:21.984Z,163.20
2019-02-11T01:31:50.538Z,158.45
2019-02-11T01:34:18.983Z,162.92
2019-02-11T01:36:47.491Z,180.87
2019-02-11T01:39:16.039Z,161.80
2019-02-11T01:41:44.458Z,172.28
2019-02-11T01:44:12.990Z,184.97
2019-02-11T01:46:41.592Z,181.60
2019-02-11T01:49:10.102Z,182.68
2019-02-11T01:51:38.594Z,202.05
2019-02-11T01:54:08.101Z,198.80
2019-02-11T01:56:38.243Z,202.13
2019-02-11T01:59:07.898Z,191.98
2019-02-11T02:01:36.482Z,175.22
2019-02-11T02:04:04.925Z,194.77
2019-02-11T02:06:33.445Z,161.97
2019-02-11T02:09:01.997Z,188.40
2019-02-11T02:11:30.570Z,191.65
2019-02-11T02:13:59.068Z,185.60
2019-02-11T02:16:27.733Z,182.00
2019-02-11T02:18:56.220Z,174.18
2019-02-11T02:21:24.715Z,214.68
2019-02-11T02:23:53.294Z,213.87
2019-02-11T02:26:21.804Z,208.78
2019-02-11T02:28:50.229Z,208.80
2019-02-11T02:31:18.717Z,156.22
2019-02-11T02:33:47.232Z,172.17
2019-02-11T02:36:15.664Z,147.87
2019-02-11T02:38:44.194Z,215.92
2019-02-11T02:41:12.670Z,166.90
2019-02-11T02:43:41.177Z,205.35
2019-02-11T02:46:09.668Z,195.03
2019-02-11T02:48:38.165Z,177.97
2019-02-11T02:51:18.780Z,186.20
2019-02-11T02:53:47.283Z,161.30
2019-02-11T02:56:15.861Z,127.87
2019-02-11T02:58:44.458Z,119.93
2019-02-11T03:01:12.946Z,179.18
2019-02-11T03:03:41.642Z,136.03
2019-02-11T03:06:10.135Z,140.75
2019-02-11T03:08:50.690Z,138.47
2019-02-11T03:11:19.287Z,153.57
2019-02-11T03:13:47.735Z,156.72
2019-02-11T03:16:16.340Z,153.95
2019-02-11T03:19:04.368Z,143.20
2019-02-11T03:21:32.883Z,153.40
2019-02-11T03:24:01.393Z,160.72
2019-02-11T03:26:29.875Z,170.47
2019-02-11T03:28:58.463Z,116.70
2019-02-11T03:31:27.050Z,171.35
2019-02-11T03:33:55.591Z,155.67
2019-02-11T03:36:24.114Z,132.85
2019-02-11T03:38:52.616Z,149.38
2019-02-11T03:41:21.057Z,165.12
2019-02-11T03:43:49.635Z,153.45
2019-02-11T03:46:18.085Z,127.30
2019-02-11T03:48:46.509Z,143.45
2019-02-11T03:51:15.074Z,126.62
2019-02-11T03:53:44.688Z,139.70
2019-02-11T03:56:13.159Z,131.40
2019-02-11T03:58:41.676Z,124.53
2019-02-11T04:01:10.269Z,107.30
2019-02-11T04:03:38.703Z,110.05
2019-02-11T04:06:07.142Z,93.80
2019-02-11T04:08:35.573Z,64.05
2019-02-11T04:11:04.118Z,95.60
2019-02-11T04:13:32.618Z,102.32
2019-02-11T04:16:01.039Z,92.78
2019-02-11T04:18:29.599Z,91.35
2019-02-11T04:20:58.101Z,89.75
2019-02-11T04:23:26.653Z,86.50
2019-02-11T04:25:55.200Z,92.72
2019-02-11T04:28:23.700Z,83.22
2019-02-11T04:30:52.274Z,90.05
2019-02-11T04:33:20.787Z,73.60
2019-02-11T04:35:49.534Z,85.07
2019-02-11T04:38:18.086Z,89.60
2019-02-11T04:40:47.656Z,75.87
2019-02-11T04:43:16.344Z,81.60
2019-02-11T04:45:44.910Z,83.58
2019-02-11T04:48:13.433Z,81.82
2019-02-11T04:50:41.986Z,78.45
2019-02-11T04:53:10.581Z,74.55
2019-02-11T04:55:58.480Z,57.08
2019-02-11T04:58:26.933Z,76.72
2019-02-11T05:00:55.496Z,66.22
2019-02-11T05:03:24.035Z,74.62
2019-02-11T05:05:52.582Z,64.03
2019-02-11T05:08:21.061Z,75.57
2019-02-11T05:10:50.670Z,71.22
2019-02-11T05:13:19.191Z,74.97
2019-02-11T05:15:48.802Z,73.90
2019-02-11T05:18:17.292Z,76.92
2019-02-11T05:20:45.961Z,72.65
2019-02-11T05:23:14.612Z,69.40
2019-02-11T05:25:43.130Z,61.58
2019-02-11T05:28:11.688Z,66.33
2019-02-11T05:30:40.272Z,77.37
2019-02-11T05:33:08.723Z,79.05
2019-02-11T05:35:37.209Z,55.25
2019-02-11T05:38:05.703Z,82.85
2019-02-11T05:40:34.276Z,74.25
2019-02-11T05:43:02.782Z,81.80
2019-02-11T05:45:31.310Z,66.40
2019-02-11T05:47:59.876Z,67.37
2019-02-11T05:50:28.471Z,67.12
2019-02-11T05:52:56.935Z,66.72
2019-02-11T05:55:26.483Z,54.90
2019-02-11T05:57:55.105Z,53.05
2019-02-11T06:00:23.623Z,50.75
2019-02-11T06:02:52.306Z,69.95
2019-02-11T06:05:21.556Z,43.35
2019-02-11T06:07:50.005Z,59.08
2019-02-11T06:10:18.578Z,31.77
2019-02-11T06:12:47.151Z,38.25
2019-02-11T06:15:15.549Z,49.85
2019-02-11T06:17:44.198Z,59.00
2019-02-11T06:20:12.759Z,53.98
2019-02-11T06:22:41.170Z,55.43
2019-02-11T06:25:11.160Z,49.48
2019-02-11T06:27:39.635Z,49.88
2019-02-11T06:30:13.442Z,39.95
2019-02-11T06:32:41.921Z,41.05
2019-02-11T06:35:10.414Z,44.75
2019-02-11T06:37:38.995Z,47.67
2019-02-11T06:40:09.666Z,50.00
2019-02-11T06:42:38.413Z,38.20
2019-02-11T06:45:13.300Z,34.67
2019-02-11T06:47:39.454Z,40.08
2019-02-11T06:50:13.530Z,47.35
2019-02-11T06:52:42.050Z,51.50
2019-02-11T06:55:11.688Z,44.40
2019-02-11T06:57:40.365Z,41.40
2019-02-11T07:00:13.429Z,43.68
2019-02-11T07:02:41.936Z,28.90
2019-02-11T07:05:10.518Z,44.23
2019-02-11T07:07:38.996Z,39.48
2019-02-11T07:10:10.266Z,43.85
2019-02-11T07:12:38.766Z,30.82
2019-02-11T07:15:12.422Z,38.13
2019-02-11T07:17:40.972Z,33.00
2019-02-11T07:20:10.477Z,14.83
2019-02-11T07:22:38.955Z,34.18
2019-02-11T07:25:08.729Z,20.70
2019-02-11T07:27:37.307Z,32.95
2019-02-11T07:30:09.189Z,22.45
2019-02-11T07:32:37.679Z,17.37
2019-02-11T07:35:06.266Z,23.80
2019-02-11T07:37:34.784Z,24.37
2019-02-11T07:40:04.211Z,18.10
2019-02-11T07:42:46.292Z,27.58
2019-02-11T07:45:29.703Z,29.63
2019-02-11T07:47:52.392Z,33.42
2019-02-11T07:50:20.892Z,33.18
2019-02-11T07:52:49.397Z,22.98
2019-02-11T07:55:17.862Z,18.40
2019-02-11T07:57:46.278Z,16.32
2019-02-11T08:00:14.966Z,15.03
2019-02-11T08:02:43.510Z,17.15
2019-02-11T08:05:12.024Z,18.55
2019-02-11T08:07:40.569Z,16.90
2019-02-11T08:10:09.061Z,23.57
2019-02-11T08:12:37.565Z,25.40
2019-02-11T08:15:08.766Z,20.65
2019-02-11T08:17:37.252Z,19.55
2019-02-11T08:20:07.784Z,17.52
2019-02-11T08:22:36.366Z,16.00
2019-02-11T08:25:05.434Z,16.35
2019-02-11T08:27:33.914Z,10.43
2019-02-11T08:30:02.544Z,11.90
2019-02-11T08:32:31.109Z,15.80
2019-02-11T08:34:59.556Z,12.20
2019-02-11T08:37:28.011Z,14.58
2019-02-11T08:39:56.443Z,8.98
2019-02-11T08:42:24.923Z,17.12
2019-02-11T08:45:12.878Z,16.30
2019-02-11T08:47:47.276Z,11.70
2019-02-11T08:50:15.697Z,18.12
2019-02-11T08:52:44.350Z,11.70
2019-02-11T08:55:12.922Z,16.95
2019-02-11T08:57:41.417Z,19.62
2019-02-11T09:00:11.388Z,9.65
2019-02-11T09:02:39.909Z,12.65
2019-02-11T09:05:08.401Z,10.95
2019-02-11T09:07:36.997Z,16.90
2019-02-11T09:10:10.874Z,12.43
2019-02-11T09:12:39.448Z,10.05
2019-02-11T09:15:23.872Z,14.83
2019-02-11T09:17:52.356Z,7.87
2019-02-11T09:20:20.836Z,10.10
2019-02-11T09:22:49.426Z,13.70
2019-02-11T09:25:17.921Z,11.35
2019-02-11T09:27:46.427Z,11.83
2019-02-11T09:30:16.850Z,11.55
2019-02-11T09:32:45.401Z,11.43
2019-02-11T09:35:13.926Z,9.83
2019-02-11T09:37:42.487Z,9.30
2019-02-11T09:40:13.447Z,12.88
2019-02-11T09:43:01.550Z,7.87
2019-02-11T09:45:30.047Z,11.88
2019-02-11T09:47:58.460Z,14.40
2019-02-11T09:50:40.341Z,15.35
2019-02-11T09:53:08.902Z,8.93
2019-02-11T09:55:37.506Z,7.25
2019-02-11T09:58:05.984Z,12.65
2019-02-11T10:00:34.671Z,7.25
2019-02-11T10:03:03.152Z,11.70
2019-02-11T10:05:31.671Z,5.17
2019-02-11T10:08:00.243Z,7.58
2019-02-11T10:10:28.768Z,8.23
2019-02-11T10:12:57.315Z,4.33
2019-02-11T10:15:25.882Z,8.50
2019-02-11T10:17:54.295Z,7.87
2019-02-11T10:20:22.815Z,4.85
2019-02-11T10:22:51.403Z,11.90
2019-02-11T10:25:22.485Z,8.75
2019-02-11T10:27:51.532Z,10.53
2019-02-11T10:30:20.087Z,6.60
2019-02-11T10:32:48.577Z,6.70
2019-02-11T10:35:17.147Z,5.87
2019-02-11T10:37:45.826Z,9.58
2019-02-11T10:40:14.738Z,8.60
2019-02-11T10:42:43.219Z,9.58
2019-02-11T10:45:17.521Z,4.55
2019-02-11T10:47:47.797Z,7.85
2019-02-11T10:50:21.163Z,8.05
2019-02-11T10:52:49.766Z,9.80
2019-02-11T10:55:20.549Z,6.65
2019-02-11T10:57:49.038Z,6.47
2019-02-11T11:00:25.192Z,3.95
2019-02-11T11:02:53.869Z,4.28
2019-02-11T11:05:22.487Z,5.87
2019-02-11T11:07:50.974Z,3.52
2019-02-11T11:10:28.595Z,1.35
2019-02-11T11:12:57.155Z,1.50
2019-02-11T11:15:25.661Z,0.80
2019-02-11T11:17:54.282Z,0.65
2019-02-11T11:20:22.720Z,1.45
2019-02-11T11:22:51.208Z,0.85
2019-02-11T11:25:19.927Z,1.37
2019-02-11T11:27:48.428Z,2.35
2019-02-11T11:30:38.383Z,2.75
2019-02-11T11:33:06.903Z,0.62
2019-02-11T11:35:55.036Z,1.05
2019-02-11T11:38:23.503Z,12.33
2019-02-11T11:40:52.079Z,0.98
2019-02-11T11:43:20.692Z,0.30
2019-02-11T11:45:49.230Z,1.30
2019-02-11T11:48:17.678Z,5.17
2019-02-11T11:50:46.148Z,3.02
2019-02-11T11:53:14.655Z,1.00
2019-02-11T11:55:43.123Z,2.62
2019-02-11T11:58:11.786Z,1.45
2019-02-11T12:00:40.369Z,2.65
2019-02-11T12:03:08.873Z,1.30
2019-02-11T12:05:38.524Z,2.58
2019-02-11T12:08:06.942Z,1.60
2019-02-11T12:10:35.387Z,0.88
2019-02-11T12:13:21.808Z,0.55
2019-02-11T12:15:34.119Z,2.40
2019-02-11T12:18:02.758Z,0.30
2019-02-11T12:20:33.761Z,0.25
2019-02-11T12:23:02.476Z,0.40
2019-02-11T12:25:30.901Z,1.05
2019-02-11T12:28:00.499Z,2.15
2019-02-11T12:30:30.661Z,1.10
2019-02-11T12:32:59.144Z,0.60
2019-02-11T12:35:27.773Z,0.37
2019-02-11T12:37:56.277Z,1.15
2019-02-11T12:40:24.876Z,1.37
2019-02-11T12:42:54.140Z,0.40
2019-02-11T12:45:24.525Z,0.35
2019-02-11T12:47:53.174Z,2.58
2019-02-11T12:50:21.764Z,0.30
2019-02-11T12:52:50.287Z,0.62
2019-02-11T12:55:19.403Z,1.32
2019-02-11T12:57:47.885Z,1.12
2019-02-11T13:00:20.766Z,0.40
2019-02-11T13:02:49.463Z,4.35
2019-02-11T13:05:44.259Z,0.30
2019-02-11T13:08:00.588Z,1.52
2019-02-11T13:10:29.885Z,3.05
2019-02-11T13:12:58.551Z,6.92
2019-02-11T13:15:56.489Z,1.72
2019-02-11T13:17:57.298Z,3.60
2019-02-11T13:20:25.884Z,1.35
2019-02-11T13:22:54.374Z,0.10
2019-02-11T13:25:22.884Z,0.72
2019-02-11T13:28:03.527Z,2.52
2019-02-11T13:30:32.118Z,0.37
2019-02-11T13:33:00.599Z,1.20
2019-02-11T13:35:29.151Z,0.75
2019-02-11T13:37:57.629Z,0.60
2019-02-11T13:40:26.258Z,1.47
2019-02-11T13:42:54.740Z,1.90
2019-02-11T13:45:23.547Z,0.30
2019-02-11T13:47:57.209Z,0.85
2019-02-11T13:50:24.627Z,1.52
2019-02-11T13:52:53.228Z,0.30
2019-02-11T13:55:21.978Z,1.02
2019-02-11T13:57:50.659Z,5.00
2019-02-11T14:00:22.686Z,0.75
2019-02-11T14:02:54.429Z,1.00
2019-02-11T14:05:43.965Z,0.88
2019-02-11T14:08:12.447Z,3.20
2019-02-11T14:10:40.936Z,0.47
2019-02-11T14:13:09.767Z,1.37
2019-02-11T14:15:38.255Z,3.55
2019-02-11T14:18:13.289Z,1.47
2019-02-11T14:20:39.182Z,5.15
2019-02-11T14:23:07.780Z,2.10
2019-02-11T14:25:44.384Z,1.30
2019-02-11T14:28:06.569Z,2.72
2019-02-11T14:30:35.086Z,0.95
2019-02-11T14:33:03.553Z,1.55
2019-02-11T14:35:32.077Z,1.57
2019-02-11T14:38:02.152Z,0.45
2019-02-11T14:40:30.799Z,1.32
2019-02-11T14:42:59.225Z,0.70
2019-02-11T14:45:27.722Z,0.40
2019-02-11T14:47:56.337Z,4.10
2019-02-11T14:50:24.905Z,1.40
2019-02-11T14:52:53.401Z,1.02
2019-02-11T14:55:22.007Z,1.12
2019-02-11T14:57:50.438Z,3.27
2019-02-11T15:00:20.678Z,1.65
2019-02-11T15:02:49.310Z,1.65
2019-02-11T15:05:18.589Z,2.35
2019-02-11T15:07:47.430Z,3.40
2019-02-11T15:10:16.131Z,1.80
2019-02-11T15:12:44.657Z,0.70
2019-02-11T15:15:13.930Z,0.53
2019-02-11T15:18:01.924Z,0.50
2019-02-11T15:20:30.560Z,1.40
2019-02-11T15:22:59.068Z,2.92
2019-02-11T15:25:27.608Z,0.85
2019-02-11T15:27:56.273Z,1.65
2019-02-11T15:30:24.772Z,1.35
2019-02-11T15:32:53.277Z,3.40
2019-02-11T15:35:21.765Z,2.70
2019-02-11T15:37:50.202Z,2.20
2019-02-11T15:40:21.042Z,0.80
2019-02-11T15:42:50.538Z,0.98
2019-02-11T15:45:19.091Z,0.45
2019-02-11T15:47:47.657Z,1.50
2019-02-11T15:50:17.615Z,0.65
2019-02-11T15:52:46.203Z,3.52
2019-02-11T15:55:17.649Z,4.45
2019-02-11T15:57:46.084Z,1.40
2019-02-11T16:00:16.581Z,2.50
2019-02-11T16:02:45.100Z,4.58
2019-02-11T16:05:16.695Z,2.47
2019-02-11T16:07:43.861Z,2.77
2019-02-11T16:10:21.124Z,4.92
2019-02-11T16:12:49.573Z,4.62
2019-02-11T16:15:19.304Z,3.10
2019-02-11T16:17:48.002Z,3.33
2019-02-11T16:20:16.483Z,1.62
2019-02-11T16:22:44.967Z,1.02
2019-02-11T16:25:17.356Z,1.55
2019-02-11T16:27:45.900Z,2.42
2019-02-11T16:30:17.123Z,4.97
2019-02-11T16:32:45.656Z,1.80
2019-02-11T16:35:15.909Z,2.22
2019-02-11T16:37:44.535Z,1.90
2019-02-11T16:40:19.190Z,4.67
2019-02-11T16:42:47.792Z,3.42
2019-02-11T16:45:16.482Z,4.97
2019-02-11T16:47:45.048Z,4.37
2019-02-11T16:50:13.852Z,1.98
2019-02-11T16:52:42.513Z,3.02
2019-02-11T16:55:13.951Z,2.95
2019-02-11T16:58:01.939Z,1.95
2019-02-11T17:00:30.580Z,3.25
2019-02-11T17:02:59.163Z,2.67
2019-02-11T17:05:27.812Z,3.17
2019-02-11T17:07:56.287Z,4.75
2019-02-11T17:10:24.816Z,0.98
2019-02-11T17:12:53.379Z,2.37
2019-02-11T17:15:21.810Z,4.72
2019-02-11T17:17:50.357Z,3.45
2019-02-11T17:20:18.896Z,2.55
2019-02-11T17:22:47.545Z,2.20
2019-02-11T17:25:15.952Z,2.52
2019-02-11T17:27:44.593Z,3.20
2019-02-11T17:30:25.105Z,2.15
2019-02-11T17:32:53.638Z,2.20
2019-02-11T17:35:22.153Z,3.20
2019-02-11T17:37:50.685Z,3.00
2019-02-11T17:40:20.289Z,3.05
2019-02-11T17:42:48.701Z,3.60
2019-02-11T17:45:23.226Z,4.85
2019-02-11T17:47:51.731Z,4.20
2019-02-11T17:50:20.219Z,4.10
2019-02-11T17:52:50.381Z,2.92
2019-02-11T17:55:18.985Z,2.47
2019-02-11T17:57:47.619Z,3.27
2019-02-11T18:00:32.976Z,6.42
2019-02-11T18:03:01.479Z,4.62
2019-02-11T18:05:30.122Z,2.42
2019-02-11T18:07:58.698Z,2.58
2019-02-11T18:10:27.203Z,5.92
2019-02-11T18:12:55.911Z,4.20
2019-02-11T18:15:24.653Z,8.05
2019-02-11T18:17:53.282Z,8.50
2019-02-11T18:20:22.966Z,6.60
2019-02-11T18:22:51.549Z,11.97
2019-02-11T18:25:20.134Z,16.12
2019-02-11T18:27:48.760Z,15.38
2019-02-11T18:30:17.262Z,4.67
2019-02-11T18:32:45.735Z,4.90
2019-02-11T18:35:17.042Z,2.92
2019-02-11T18:37:45.534Z,3.70
2019-02-11T18:40:26.434Z,4.17
2019-02-11T18:42:55.032Z,3.58
2019-02-11T18:45:23.437Z,5.22
2019-02-11T18:47:51.971Z,6.62
2019-02-11T18:50:20.499Z,4.55
2019-02-11T18:52:49.074Z,4.60
2019-02-11T18:55:19.914Z,3.77
2019-02-11T18:57:48.536Z,3.08
2019-02-11T19:00:21.113Z,9.68
2019-02-11T19:02:49.661Z,9.25
2019-02-11T19:05:18.301Z,11.93
2019-02-11T19:07:46.836Z,5.55
2019-02-11T19:10:17.050Z,4.10
2019-02-11T19:12:45.656Z,5.55
2019-02-11T19:15:15.575Z,3.85
2019-02-11T19:17:44.123Z,3.35
2019-02-11T19:20:19.595Z,5.28
2019-02-11T19:22:48.072Z,6.30
2019-02-11T19:25:16.556Z,3.37
2019-02-11T19:27:45.039Z,5.97
2019-02-11T19:30:22.723Z,6.05
2019-02-11T19:32:51.397Z,5.35
2019-02-11T19:35:20.024Z,19.55
2019-02-11T19:37:48.565Z,13.62
2019-02-11T19:40:18.663Z,10.82
2019-02-11T19:42:47.188Z,15.85
2019-02-11T19:45:20.511Z,24.15
2019-02-11T19:47:49.061Z,9.40
2019-02-11T19:50:18.208Z,13.15
2019-02-11T19:52:47.042Z,7.30
2019-02-11T19:55:16.527Z,6.65
2019-02-11T19:57:45.073Z,6.03
2019-02-11T20:00:20.742Z,6.47
2019-02-11T20:02:49.953Z,6.30
2019-02-11T20:05:18.675Z,9.80
2019-02-11T20:07:47.161Z,5.65
2019-02-11T20:10:18.249Z,8.30
2019-02-11T20:12:46.870Z,9.28
2019-02-11T20:15:17.897Z,9.13
2019-02-11T20:17:46.440Z,11.20
2019-02-11T20:20:20.342Z,8.83
2019-02-11T20:22:48.935Z,8.98
2019-02-11T20:25:18.475Z,9.93
2019-02-11T20:28:06.400Z,8.25
2019-02-11T20:30:35.166Z,23.35
2019-02-11T20:33:04.565Z,18.85
2019-02-11T20:35:33.111Z,11.38
2019-02-11T20:38:01.945Z,6.25
2019-02-11T20:40:30.577Z,7.08
2019-02-11T20:42:59.083Z,9.70
2019-02-11T20:45:30.654Z,8.78
2019-02-11T20:47:59.050Z,8.88
2019-02-11T20:50:27.714Z,10.05
2019-02-11T20:52:56.209Z,9.28
2019-02-11T20:55:25.013Z,6.40
2019-02-11T20:57:56.523Z,6.92
2019-02-11T21:00:26.059Z,9.98
2019-02-11T21:02:54.860Z,7.37
2019-02-11T21:05:23.834Z,5.55
2019-02-11T21:07:52.532Z,4.95
2019-02-11T21:10:23.878Z,5.22
2019-02-11T21:13:01.583Z,15.40
2019-02-11T21:15:30.262Z,9.98
2019-02-11T21:17:58.646Z,9.95
2019-02-11T21:20:33.242Z,11.97
2019-02-11T21:23:01.953Z,13.65
2019-02-11T21:25:30.423Z,11.55
2019-02-11T21:27:58.910Z,10.38
2019-02-11T21:30:28.604Z,12.63
2019-02-11T21:32:57.302Z,10.03
2019-02-11T21:35:25.754Z,5.45
2019-02-11T21:37:54.360Z,4.85
2019-02-11T21:40:22.913Z,5.72
2019-02-11T21:42:51.478Z,5.37
2019-02-11T21:45:20.078Z,7.22
2019-02-11T21:47:48.591Z,5.90
2019-02-11T21:50:26.831Z,8.35
2019-02-11T21:52:51.379Z,9.28
2019-02-11T21:55:21.513Z,7.10
2019-02-11T21:57:50.077Z,6.50
2019-02-11T22:00:24.396Z,7.72
2019-02-11T22:02:52.817Z,6.58
2019-02-11T22:05:21.369Z,8.33
2019-02-11T22:07:49.893Z,10.53
2019-02-11T22:10:20.570Z,3.65
2019-02-11T22:12:49.159Z,3.72
2019-02-11T22:15:17.639Z,3.22
2019-02-11T22:17:46.120Z,3.02
2019-02-11T22:20:21.738Z,6.15
2019-02-11T22:22:50.270Z,4.85
2019-02-11T22:25:18.721Z,8.28
2019-02-11T22:27:47.580Z,4.15
2019-02-11T22:30:18.106Z,2.67
2019-02-11T22:32:46.659Z,3.27
2019-02-11T22:35:15.307Z,2.87
2019-02-11T22:37:43.892Z,2.60
2019-02-11T22:40:14.199Z,2.80
2019-02-11T22:42:42.798Z,6.40
2019-02-11T22:45:14.110Z,4.28
2019-02-11T22:47:42.797Z,4.05
2019-02-11T22:50:12.915Z,3.75
2019-02-11T22:52:41.600Z,5.28
2019-02-11T22:55:12.055Z,8.88
2019-02-11T22:57:40.517Z,4.78
2019-02-11T23:00:15.128Z,2.70
2019-02-11T23:02:43.648Z,3.33
2019-02-11T23:05:12.073Z,3.55
2019-02-11T23:07:40.674Z,2.35
2019-02-11T23:10:09.242Z,3.35
2019-02-11T23:12:37.738Z,2.92
2019-02-11T23:15:08.712Z,4.08
2019-02-11T23:17:37.248Z,4.40
2019-02-11T23:20:07.480Z,5.45
2019-02-11T23:22:35.874Z,8.05
2019-02-11T23:25:04.774Z,10.15
2019-02-11T23:27:33.231Z,8.43
2019-02-11T23:30:01.738Z,12.07
2019-02-11T23:32:30.315Z,9.68
2019-02-11T23:34:58.732Z,11.18
2019-02-11T23:37:27.365Z,2.30
2019-02-11T23:39:55.920Z,6.80
2019-02-11T23:42:24.513Z,8.53
2019-02-11T23:44:53.247Z,3.25
2019-02-11T23:47:22.220Z,3.25
2019-02-11T23:49:50.752Z,3.58
2019-02-11T23:52:19.522Z,1.92
2019-02-11T23:54:49.080Z,2.00
2019-02-11T23:57:17.450Z,5.03
2019-02-11T23:59:45.965Z,2.70
